Time;durP1;ratioP1;P1;durP2;ratioP2;P2;SDS_P1;SDS_P2;PMS_P1;PMS_P2;Temp;Humidity;BMP_temperature;BMP_pressure;BME280_temperature;BME280_humidity;BME280_pressure;Samples;Min_cycle;Max_cycle;Signal;HPM_P1;HPM_P2
2023/12/26 00:03:27;;;;;;;;;;;;;;;5.21;100.00;95393.91;10572514;27;2149;-69
2023/12/26 00:08:31;;;;;;;;;;;;;;;5.17;100.00;95392.81;10601217;27;2019;-67
2023/12/26 00:13:34;;;;;;;;;;;;;;;5.11;100.00;95388.50;10565875;27;5033;-68
2023/12/26 00:18:38;;;;;;;;;;;;;;;5.01;100.00;95380.38;10585229;27;1980;-70
2023/12/26 00:23:41;;;;;;;;;;;;;;;4.82;100.00;95377.19;10603278;27;2040;-72
2023/12/26 00:28:47;;;;;;;;;;;;;;;4.76;100.00;95371.00;10590003;27;2004;-72
2023/12/26 00:33:53;;;;;;;;;;;;;;;4.65;100.00;95363.94;10605647;27;1897;-73
2023/12/26 00:38:58;;;;;;;;;;;;;;;4.73;100.00;95366.19;10601967;27;1996;-70
2023/12/26 00:44:04;;;;;;;;;;;;;;;4.67;100.00;95361.84;10610797;27;1956;-68
2023/12/26 00:49:11;;;;;;;;;;;;;;;4.65;100.00;95363.94;10588682;27;2211;-67
2023/12/26 00:54:15;;;;;;;;;;;;;;;4.66;100.00;95360.22;10588932;27;1842;-67
2023/12/26 00:59:18;;;;;;;;;;;;;;;4.62;100.00;95359.09;10621780;27;1960;-67
2023/12/26 01:04:24;;;;;;;;;;;;;;;4.64;100.00;95364.97;10604366;27;1969;-66
2023/12/26 01:14:46;;;;;;;;;;;;;;;4.49;100.00;95362.91;10602796;27;5112;-68
2023/12/26 01:19:59;;;;;;;;;;;;;;;4.33;100.00;95372.56;10592909;27;1835;-70
2023/12/26 01:25:06;;;;;;;;;;;;;;;4.34;100.00;95368.03;10570396;27;1981;-67
2023/12/26 01:30:09;;;;;;;;;;;;;;;4.22;100.00;95376.09;10585719;27;2029;-68
2023/12/26 01:35:14;;;;;;;;;;;;;;;4.21;100.00;95373.69;10602253;27;2044;-68
2023/12/26 01:40:18;;;;;;;;;;;;;;;4.17;100.00;95378.69;10597013;27;2067;-67
2023/12/26 01:45:23;;;;;;;;;;;;;;;4.14;100.00;95378.38;10596328;27;2391;-68
2023/12/26 01:50:27;;;;;;;;;;;;;;;4.08;100.00;95374.84;10593480;27;2112;-66
2023/12/26 01:55:31;;;;;;;;;;;;;;;4.07;100.00;95378.50;10595486;27;1925;-67
2023/12/26 02:00:34;;;;;;;;;;;;;;;4.01;100.00;95382.16;10593001;27;2052;-66
2023/12/26 02:10:58;;;;;;;;;;;;;;;3.85;100.00;95373.13;10602795;27;2021;-66
2023/12/26 02:16:04;;;;;;;;;;;;;;;3.78;100.00;95369.81;10603784;27;5125;-68
2023/12/26 02:21:09;;;;;;;;;;;;;;;3.75;100.00;95365.81;10595542;27;2122;-67
2023/12/26 02:26:14;;;;;;;;;;;;;;;3.71;100.00;95366.50;10592100;27;1913;-66
2023/12/26 02:31:16;;;;;;;;;;;;;;;3.64;100.00;95364.00;10601358;27;2064;-67
2023/12/26 02:36:27;;;;;;;;;;;;;;;3.58;100.00;95364.16;10600562;27;1881;-68
2023/12/26 02:41:30;;;;;;;;;;;;;;;3.57;100.00;95357.25;10579189;27;2255;-68
2023/12/26 02:46:36;;;;;;;;;;;;;;;3.56;100.00;95356.41;10597248;27;1982;-66
2023/12/26 02:51:46;;;;;;;;;;;;;;;3.42;100.00;95349.78;10587404;27;1919;-66
2023/12/26 02:56:53;;;;;;;;;;;;;;;3.32;100.00;95353.09;10591821;27;2033;-67
2023/12/26 03:01:57;;;;;;;;;;;;;;;3.29;100.00;95358.84;10580991;27;1913;-68
2023/12/26 03:07:06;;;;;;;;;;;;;;;3.30;100.00;95349.84;10585583;27;2019;-67
2023/12/26 03:12:12;;;;;;;;;;;;;;;3.23;100.00;95355.28;10604305;27;5152;-69
2023/12/26 03:17:17;;;;;;;;;;;;;;;3.21;100.00;95349.44;10596776;27;1973;-66
2023/12/26 03:22:22;;;;;;;;;;;;;;;3.21;100.00;95343.31;10580602;27;2043;-67
2023/12/26 03:27:26;;;;;;;;;;;;;;;3.15;100.00;95353.03;10620293;27;1987;-65
2023/12/26 03:32:29;;;;;;;;;;;;;;;3.10;100.00;95346.81;10580688;27;2113;-67
2023/12/26 03:37:35;;;;;;;;;;;;;;;2.98;100.00;95355.63;10584787;27;2273;-68
2023/12/26 03:42:37;;;;;;;;;;;;;;;2.96;100.00;95356.91;10597876;27;1971;-69
2023/12/26 03:47:43;;;;;;;;;;;;;;;2.94;100.00;95357.16;10580925;27;1980;-67
2023/12/26 03:52:46;;;;;;;;;;;;;;;2.94;100.00;95367.78;10578609;27;2036;-66
2023/12/26 03:57:59;;;;;;;;;;;;;;;2.85;100.00;95357.75;10576892;27;1955;-66
2023/12/26 04:03:16;;;;;;;;;;;;;;;2.89;100.00;95366.84;10460435;28;1975;-67
2023/12/26 04:08:22;;;;;;;;;;;;;;;2.89;100.00;95372.97;10474991;28;1985;-71
2023/12/26 04:13:26;;;;;;;;;;;;;;;2.95;100.00;95361.41;10471832;28;5094;-66
2023/12/26 04:18:33;;;;;;;;;;;;;;;2.93;100.00;95362.69;10433290;28;2026;-66
2023/12/26 04:23:40;;;;;;;;;;;;;;;2.92;100.00;95361.06;10479090;28;2029;-69
2023/12/26 04:28:44;;;;;;;;;;;;;;;3.00;100.00;95360.72;10445373;28;2054;-66
2023/12/26 04:33:55;;;;;;;;;;;;;;;3.16;100.00;95354.63;10458487;28;2085;-66
2023/12/26 04:39:15;;;;;;;;;;;;;;;3.33;100.00;95351.22;10475408;28;2105;-66
2023/12/26 04:44:24;;;;;;;;;;;;;;;3.47;100.00;95357.84;10495489;27;1990;-66
2023/12/26 04:49:32;;;;;;;;;;;;;;;3.67;100.00;95368.84;10597370;27;1912;-67
2023/12/26 04:54:37;;;;;;;;;;;;;;;4.23;100.00;95382.22;10582264;27;2270;-66
2023/12/26 04:59:44;;;;;;;;;;;;;;;4.75;100.00;95396.03;10603244;27;2019;-66
2023/12/26 05:05:03;;;;;;;;;;;;;;;5.25;100.00;95407.56;10589021;27;2012;-68
2023/12/26 05:10:08;;;;;;;;;;;;;;;5.50;100.00;95407.84;10603155;27;2027;-67
2023/12/26 05:15:13;;;;;;;;;;;;;;;5.67;100.00;95399.78;10589571;27;5073;-65
2023/12/26 05:20:16;;;;;;;;;;;;;;;5.72;100.00;95401.66;10593342;27;2074;-67
2023/12/26 05:25:32;;;;;;;;;;;;;;;5.84;100.00;95411.13;10613594;27;2223;-66
2023/12/26 05:30:37;;;;;;;;;;;;;;;5.80;100.00;95420.72;10597814;27;2168;-72
2023/12/26 05:35:42;;;;;;;;;;;;;;;5.66;100.00;95424.81;10589043;27;2099;-68
2023/12/26 05:40:48;;;;;;;;;;;;;;;5.58;100.00;95435.94;10606309;27;2112;-69
2023/12/26 05:45:56;;;;;;;;;;;;;;;5.55;100.00;95437.25;10582790;27;2241;-70
2023/12/26 05:50:59;;;;;;;;;;;;;;;5.52;100.00;95447.59;10602569;27;2551;-71
2023/12/26 05:56:05;;;;;;;;;;;;;;;5.55;100.00;95457.78;10573837;27;1969;-70
2023/12/26 06:01:08;;;;;;;;;;;;;;;5.54;100.00;95474.81;10611738;27;1953;-67
2023/12/26 06:06:11;;;;;;;;;;;;;;;5.56;100.00;95486.84;10603314;27;1988;-67
2023/12/26 06:11:19;;;;;;;;;;;;;;;5.51;100.00;95488.63;10590801;27;2040;-67
2023/12/26 06:16:25;;;;;;;;;;;;;;;5.45;100.00;95506.44;10571568;27;5463;-67
2023/12/26 06:21:31;;;;;;;;;;;;;;;5.41;100.00;95502.66;10593648;27;1943;-69
2023/12/26 06:26:34;;;;;;;;;;;;;;;5.32;100.00;95506.78;10603788;27;2068;-68
2023/12/26 06:31:39;;;;;;;;;;;;;;;5.26;100.00;95508.56;10592935;27;1877;-67
2023/12/26 06:36:51;;;;;;;;;;;;;;;5.12;100.00;95523.31;10585071;27;2041;-67
2023/12/26 06:41:57;;;;;;;;;;;;;;;5.02;100.00;95526.63;10597665;27;1972;-67
2023/12/26 06:47:03;;;;;;;;;;;;;;;5.04;100.00;95545.06;10584682;27;1894;-67
2023/12/26 06:52:06;;;;;;;;;;;;;;;4.98;100.00;95546.03;10601017;27;1968;-67
2023/12/26 06:57:15;;;;;;;;;;;;;;;4.83;100.00;95557.22;10602122;27;2053;-67
2023/12/26 07:02:20;;;;;;;;;;;;;;;4.82;100.00;95572.41;10584295;27;2050;-68
2023/12/26 07:07:23;;;;;;;;;;;;;;;4.78;100.00;95587.28;10579065;27;1985;-67
2023/12/26 07:12:26;;;;;;;;;;;;;;;4.79;100.00;95578.22;10582989;27;2168;-67
2023/12/26 07:17:31;;;;;;;;;;;;;;;4.84;100.00;95604.94;10592053;27;1937;-67
2023/12/26 07:22:39;;;;;;;;;;;;;;;4.83;100.00;95607.84;10581775;27;2009;-67
2023/12/26 07:27:42;;;;;;;;;;;;;;;4.84;100.00;95628.13;10602690;27;2108;-67
2023/12/26 07:32:46;;;;;;;;;;;;;;;4.91;100.00;95638.63;10598558;27;2075;-67
2023/12/26 07:37:50;;;;;;;;;;;;;;;4.89;100.00;95647.63;10589280;27;2020;-65
2023/12/26 07:42:57;;;;;;;;;;;;;;;4.96;100.00;95650.13;10594741;27;1924;-68
2023/12/26 07:48:01;;;;;;;;;;;;;;;5.00;100.00;95648.63;10595648;27;1940;-67
2023/12/26 07:53:05;;;;;;;;;;;;;;;5.11;100.00;95663.72;10602288;27;1906;-73
2023/12/26 07:58:11;;;;;;;;;;;;;;;5.23;100.00;95673.50;10599010;27;1917;-68
2023/12/26 08:03:15;;;;;;;;;;;;;;;5.40;100.00;95674.28;10585353;27;2122;-68
2023/12/26 08:08:22;;;;;;;;;;;;;;;5.56;100.00;95672.69;10602551;27;2035;-67
2023/12/26 08:19:25;;;;;;;;;;;;;;;5.84;100.00;95664.53;10588667;27;4703;-67
2023/12/26 08:24:29;;;;;;;;;;;;;;;6.00;100.00;95665.59;10600313;27;2011;-67
2023/12/26 08:29:33;;;;;;;;;;;;;;;6.18;100.00;95675.97;10585844;27;2064;-67
2023/12/26 08:34:36;;;;;;;;;;;;;;;6.36;100.00;95682.88;10604743;27;1877;-67
2023/12/26 08:39:41;;;;;;;;;;;;;;;6.54;100.00;95684.38;10623165;27;2258;-68
2023/12/26 08:44:45;;;;;;;;;;;;;;;6.65;100.00;95693.31;10597678;27;1978;-68
2023/12/26 08:49:49;;;;;;;;;;;;;;;6.75;100.00;95688.09;10593540;27;1863;-67
2023/12/26 08:54:52;;;;;;;;;;;;;;;6.84;100.00;95704.47;10590612;27;1978;-67
2023/12/26 08:59:59;;;;;;;;;;;;;;;6.85;100.00;95706.91;10608842;27;2054;-68
2023/12/26 09:05:04;;;;;;;;;;;;;;;7.03;100.00;95709.22;10613065;27;2044;-68
2023/12/26 09:10:14;;;;;;;;;;;;;;;7.24;100.00;95715.56;10604848;27;2051;-67
2023/12/26 09:15:18;;;;;;;;;;;;;;;7.44;100.00;95720.28;10609126;27;5199;-66
2023/12/26 09:20:23;;;;;;;;;;;;;;;7.48;100.00;95721.38;10587805;27;2095;-66
2023/12/26 09:25:26;;;;;;;;;;;;;;;7.62;100.00;95715.59;10595134;27;2001;-67
2023/12/26 09:30:32;;;;;;;;;;;;;;;7.64;100.00;95708.16;10584888;27;2047;-70
2023/12/26 09:35:38;;;;;;;;;;;;;;;7.72;100.00;95713.81;10603640;27;1922;-69
2023/12/26 09:40:42;;;;;;;;;;;;;;;7.88;100.00;95727.31;10604504;27;1897;-68
2023/12/26 09:45:47;;;;;;;;;;;;;;;7.98;100.00;95720.16;10605754;27;2253;-68
2023/12/26 09:50:54;;;;;;;;;;;;;;;8.23;100.00;95718.69;10615357;27;2015;-68
2023/12/26 09:55:58;;;;;;;;;;;;;;;8.39;100.00;95720.41;10591321;27;2173;-67
2023/12/26 10:01:02;;;;;;;;;;;;;;;8.46;100.00;95721.00;10604176;27;1937;-67
2023/12/26 10:06:12;;;;;;;;;;;;;;;8.56;100.00;95718.34;10589696;27;1926;-67
2023/12/26 10:11:20;;;;;;;;;;;;;;;8.93;100.00;95715.53;10601017;27;1924;-67
2023/12/26 10:16:23;;;;;;;;;;;;;;;9.02;100.00;95713.13;10603862;27;5235;-67
2023/12/26 10:21:26;;;;;;;;;;;;;;;9.30;100.00;95713.72;10599663;27;2059;-68
2023/12/26 10:26:33;;;;;;;;;;;;;;;9.31;100.00;95715.31;10598462;27;1951;-68
2023/12/26 10:31:39;;;;;;;;;;;;;;;9.39;100.00;95722.84;10570653;27;1920;-67
2023/12/26 10:36:50;;;;;;;;;;;;;;;9.56;100.00;95723.41;10609219;27;1999;-66
2023/12/26 10:41:54;;;;;;;;;;;;;;;9.37;100.00;95725.00;10586070;27;2016;-67
2023/12/26 10:46:59;;;;;;;;;;;;;;;9.27;100.00;95725.75;10580107;27;2060;-68
2023/12/26 10:52:08;;;;;;;;;;;;;;;9.20;100.00;95714.50;10587844;27;2347;-68
2023/12/26 10:57:11;;;;;;;;;;;;;;;9.38;100.00;95731.97;10607750;27;1921;-69
2023/12/26 11:02:21;;;;;;;;;;;;;;;9.33;100.00;95734.63;10585457;27;2082;-68
2023/12/26 11:07:30;;;;;;;;;;;;;;;9.38;100.00;95740.00;10581813;27;2005;-67
2023/12/26 11:12:35;;;;;;;;;;;;;;;9.26;100.00;95724.16;10583061;27;5161;-67
2023/12/26 11:17:40;;;;;;;;;;;;;;;9.34;100.00;95736.25;10585094;27;1965;-69
2023/12/26 11:22:44;;;;;;;;;;;;;;;9.33;100.00;95730.06;10601780;27;2047;-70
2023/12/26 11:27:47;;;;;;;;;;;;;;;9.48;100.00;95740.03;10600221;27;2087;-69
2023/12/26 11:32:51;;;;;;;;;;;;;;;9.50;100.00;95745.13;10606126;27;2138;-68
2023/12/26 11:37:56;;;;;;;;;;;;;;;9.60;100.00;95742.44;10595647;27;1972;-70
2023/12/26 11:43:05;;;;;;;;;;;;;;;9.40;100.00;95733.28;10593561;27;2016;-72
2023/12/26 11:48:09;;;;;;;;;;;;;;;9.38;100.00;95746.19;10603781;27;1931;-73
2023/12/26 11:53:14;;;;;;;;;;;;;;;9.46;100.00;95726.84;10602646;27;1961;-74
2023/12/26 11:58:20;;;;;;;;;;;;;;;9.57;100.00;95730.38;10592644;27;1925;-70
2023/12/26 12:03:26;;;;;;;;;;;;;;;9.70;100.00;95745.94;10606145;27;1853;-68
2023/12/26 12:08:31;;;;;;;;;;;;;;;9.77;100.00;95740.28;10608458;27;1917;-68
2023/12/26 12:13:36;;;;;;;;;;;;;;;9.53;100.00;95745.38;10576292;27;1969;-67
2023/12/26 12:18:41;;;;;;;;;;;;;;;9.48;100.00;95732.78;10605047;27;2020;-66
2023/12/26 12:23:45;;;;;;;;;;;;;;;9.34;100.00;95737.03;10590291;27;2153;-66
2023/12/26 12:28:53;;;;;;;;;;;;;;;9.33;100.00;95737.31;10594531;27;2096;-66
2023/12/26 12:34:16;;;;;;;;;;;;;;;9.48;100.00;95746.19;10607542;27;2040;-67
2023/12/26 12:39:25;;;;;;;;;;;;;;;9.58;100.00;95756.13;10589342;27;1910;-68
2023/12/26 12:44:31;;;;;;;;;;;;;;;9.35;100.00;95748.56;10584215;27;2285;-67
2023/12/26 12:49:35;;;;;;;;;;;;;;;9.24;100.00;95758.50;10589229;27;1902;-67
2023/12/26 12:54:43;;;;;;;;;;;;;;;9.13;100.00;95752.28;10584766;27;1927;-67
2023/12/26 12:59:49;;;;;;;;;;;;;;;8.93;100.00;95779.06;10608766;27;1987;-67
2023/12/26 13:04:52;;;;;;;;;;;;;;;8.85;100.00;95779.56;10602166;27;1891;-67
2023/12/26 13:09:58;;;;;;;;;;;;;;;8.76;100.00;95789.16;10581589;27;1999;-67
2023/12/26 13:15:02;;;;;;;;;;;;;;;8.90;100.00;95785.72;10606364;27;5183;-67
2023/12/26 13:20:08;;;;;;;;;;;;;;;8.90;100.00;95777.69;10601115;27;2002;-67
2023/12/26 13:25:16;;;;;;;;;;;;;;;8.82;100.00;95785.44;10598772;27;2087;-68
2023/12/26 13:30:23;;;;;;;;;;;;;;;8.60;100.00;95789.09;10567934;27;1976;-69
2023/12/26 13:35:29;;;;;;;;;;;;;;;8.57;100.00;95781.56;10582405;27;1970;-68
2023/12/26 13:40:35;;;;;;;;;;;;;;;8.51;100.00;95787.16;10602073;27;2263;-67
2023/12/26 13:45:39;;;;;;;;;;;;;;;8.51;100.00;95785.28;10572566;27;2186;-68
2023/12/26 13:50:42;;;;;;;;;;;;;;;8.63;100.00;95788.56;10587606;27;1993;-70
2023/12/26 13:55:45;;;;;;;;;;;;;;;8.83;100.00;95813.84;10585319;27;1881;-70
2023/12/26 14:00:49;;;;;;;;;;;;;;;8.75;100.00;95809.00;10604303;27;1930;-66
2023/12/26 14:05:58;;;;;;;;;;;;;;;8.74;100.00;95812.75;10608635;27;2013;-67
2023/12/26 14:11:03;;;;;;;;;;;;;;;8.61;100.00;95825.53;10598377;27;1909;-68
2023/12/26 14:16:11;;;;;;;;;;;;;;;8.45;100.00;95809.63;10594953;27;5447;-67
2023/12/26 14:21:17;;;;;;;;;;;;;;;8.45;100.00;95807.75;10587712;27;1995;-66
2023/12/26 14:26:22;;;;;;;;;;;;;;;8.31;100.00;95787.81;10598433;27;1906;-68
2023/12/26 14:31:29;;;;;;;;;;;;;;;8.19;100.00;95796.03;10582121;27;1996;-67
2023/12/26 14:36:34;;;;;;;;;;;;;;;8.17;100.00;95816.13;10583420;27;2164;-66
2023/12/26 14:41:38;;;;;;;;;;;;;;;8.16;100.00;95826.03;10582871;27;1895;-69
2023/12/26 14:46:44;;;;;;;;;;;;;;;8.41;100.00;95829.97;10578002;27;1910;-69
2023/12/26 14:51:48;;;;;;;;;;;;;;;8.62;100.00;95821.00;10574139;27;2155;-67
2023/12/26 14:56:54;;;;;;;;;;;;;;;8.75;100.00;95814.34;10583406;27;2322;-66
2023/12/26 15:01:59;;;;;;;;;;;;;;;8.77;100.00;95828.28;10590552;27;2054;-68
2023/12/26 15:07:05;;;;;;;;;;;;;;;8.73;100.00;95833.38;10599950;27;2058;-68
2023/12/26 15:12:14;;;;;;;;;;;;;;;8.83;100.00;95832.59;10604132;27;5101;-68
2023/12/26 15:17:21;;;;;;;;;;;;;;;8.81;100.00;95824.03;10582908;27;1957;-68
2023/12/26 15:22:29;;;;;;;;;;;;;;;8.72;100.00;95806.84;10603347;27;2084;-67
2023/12/26 15:27:33;;;;;;;;;;;;;;;8.62;100.00;95821.78;10602966;27;2000;-73
2023/12/26 15:32:37;;;;;;;;;;;;;;;8.59;100.00;95822.31;10580114;27;1958;-68
2023/12/26 15:37:45;;;;;;;;;;;;;;;8.60;100.00;95831.16;10595377;27;2009;-68
2023/12/26 15:42:49;;;;;;;;;;;;;;;8.59;100.00;95843.75;10603435;27;1816;-67
2023/12/26 15:53:46;;;;;;;;;;;;;;;8.54;100.00;95867.84;10585628;27;1966;-69
2023/12/26 15:58:52;;;;;;;;;;;;;;;8.53;100.00;95884.97;10592275;27;1897;-71
2023/12/26 16:03:58;;;;;;;;;;;;;;;8.54;100.00;95899.19;10592297;27;2328;-67
2023/12/26 16:09:01;;;;;;;;;;;;;;;8.45;100.00;95904.19;10580789;27;2017;-67
2023/12/26 16:14:09;;;;;;;;;;;;;;;8.40;100.00;95893.47;10580273;27;5073;-67
2023/12/26 16:19:12;;;;;;;;;;;;;;;8.39;100.00;95902.53;10596918;27;1985;-68
2023/12/26 16:24:29;;;;;;;;;;;;;;;8.38;100.00;95895.56;10601862;27;2506;-68
2023/12/26 16:29:35;;;;;;;;;;;;;;;8.39;100.00;95907.91;10602389;27;1956;-68
2023/12/26 16:34:42;;;;;;;;;;;;;;;8.36;100.00;95913.78;10585694;27;2031;-67
2023/12/26 16:39:53;;;;;;;;;;;;;;;8.40;100.00;95920.25;10602710;27;1839;-67
2023/12/26 16:44:56;;;;;;;;;;;;;;;8.32;100.00;95923.34;10605851;27;1922;-67
2023/12/26 16:50:00;;;;;;;;;;;;;;;8.35;100.00;95925.53;10571883;27;1925;-64
2023/12/26 16:55:07;;;;;;;;;;;;;;;8.34;100.00;95932.75;10605997;27;2520;-66
2023/12/26 17:00:15;;;;;;;;;;;;;;;8.35;100.00;95938.91;10607384;27;1932;-67
2023/12/26 17:05:21;;;;;;;;;;;;;;;8.25;100.00;95936.16;10601991;27;1944;-67
2023/12/26 17:10:24;;;;;;;;;;;;;;;8.26;100.00;95935.06;10607533;27;1972;-67
2023/12/26 17:15:39;;;;;;;;;;;;;;;8.21;100.00;95954.59;10606669;27;5077;-68
2023/12/26 17:20:43;;;;;;;;;;;;;;;8.21;100.00;95959.16;10603435;27;1864;-70
2023/12/26 17:26:00;;;;;;;;;;;;;;;8.17;100.00;95960.72;10589528;27;1855;-70
2023/12/26 17:31:05;;;;;;;;;;;;;;;7.95;100.00;95961.59;10587929;27;1915;-72
2023/12/26 17:36:21;;;;;;;;;;;;;;;7.59;100.00;95985.25;10603574;27;2495;-72
2023/12/26 17:41:34;;;;;;;;;;;;;;;7.46;100.00;95984.81;10599634;27;1980;-68
2023/12/26 17:46:42;;;;;;;;;;;;;;;7.29;100.00;95990.22;10595119;27;1899;-70
2023/12/26 17:51:46;;;;;;;;;;;;;;;7.25;100.00;95994.44;10611024;27;1912;-65
2023/12/26 17:56:51;;;;;;;;;;;;;;;7.15;100.00;96010.34;10579650;27;2043;-65
2023/12/26 18:02:13;;;;;;;;;;;;;;;7.06;100.00;96012.59;10598198;27;1599;-71
2023/12/26 18:07:19;;;;;;;;;;;;;;;7.08;100.00;96018.53;10606827;27;1890;-67
2023/12/26 18:12:23;;;;;;;;;;;;;;;7.06;100.00;96012.59;10602021;27;5073;-68
2023/12/26 18:17:26;;;;;;;;;;;;;;;7.02;100.00;96016.84;10601564;27;2604;-68
2023/12/26 18:22:30;;;;;;;;;;;;;;;7.01;100.00;96024.06;10597874;27;2077;-68
2023/12/26 18:33:01;;;;;;;;;;;;;;;7.10;100.00;96037.00;10599440;27;1870;-67
2023/12/26 18:38:05;;;;;;;;;;;;;;;7.05;100.00;96041.22;10591882;27;1723;-67
2023/12/26 18:43:09;;;;;;;;;;;;;;;7.02;100.00;96055.06;10575845;27;1894;-67
2023/12/26 18:48:13;;;;;;;;;;;;;;;7.11;100.00;96054.66;10578751;27;1981;-67
2023/12/26 18:53:18;;;;;;;;;;;;;;;7.22;100.00;96067.13;10562153;27;1448;-67
2023/12/26 18:58:30;;;;;;;;;;;;;;;7.24;100.00;96071.16;10589712;27;2931;-67
2023/12/26 19:03:35;;;;;;;;;;;;;;;7.32;100.00;96075.31;10595024;27;1669;-66
2023/12/26 19:08:50;;;;;;;;;;;;;;;7.30;100.00;96075.53;10592176;27;2001;-66
2023/12/26 19:13:57;;;;;;;;;;;;;;;7.35;100.00;96071.31;10611059;27;5089;-67
2023/12/26 19:19:08;;;;;;;;;;;;;;;7.36;100.00;96087.13;10602089;27;1965;-66
2023/12/26 19:24:17;;;;;;;;;;;;;;;7.38;100.00;96089.53;10617384;27;1493;-72
2023/12/26 19:29:36;;;;;;;;;;;;;;;7.32;100.00;96091.34;10601403;27;1972;-67
2023/12/26 19:34:42;;;;;;;;;;;;;;;7.39;100.00;96108.03;10591735;27;1495;-71
2023/12/26 19:39:48;;;;;;;;;;;;;;;7.28;100.00;96100.91;10594064;27;2568;-67
2023/12/26 19:44:51;;;;;;;;;;;;;;;7.36;100.00;96103.16;10592129;27;1598;-68
2023/12/26 19:49:55;;;;;;;;;;;;;;;7.31;100.00;96119.13;10581730;27;1917;-70
2023/12/26 19:55:01;;;;;;;;;;;;;;;7.36;100.00;96119.22;10599780;27;1574;-68
2023/12/26 20:00:20;;;;;;;;;;;;;;;7.35;100.00;96119.47;10596859;27;1828;-66
2023/12/26 20:05:22;;;;;;;;;;;;;;;7.29;100.00;96123.91;10590094;27;1501;-68
2023/12/26 20:10:37;;;;;;;;;;;;;;;7.38;100.00;96122.47;10607307;27;1981;-67
2023/12/26 20:15:41;;;;;;;;;;;;;;;7.39;100.00;96126.75;10609870;27;5130;-68
2023/12/26 20:21:05;;;;;;;;;;;;;;;7.44;100.00;96132.16;10604434;27;1525;-69
2023/12/26 20:26:14;;;;;;;;;;;;;;;7.39;100.00;96132.09;10589988;27;2376;-67
2023/12/26 20:31:17;;;;;;;;;;;;;;;7.45;100.00;96128.47;10604937;27;1974;-70
2023/12/26 20:36:27;;;;;;;;;;;;;;;7.34;100.00;96125.88;10602677;27;1851;-68
2023/12/26 20:41:39;;;;;;;;;;;;;;;7.37;100.00;96139.53;10593066;27;1930;-66
2023/12/26 20:46:43;;;;;;;;;;;;;;;7.43;100.00;96143.91;10608758;27;1876;-71
2023/12/26 20:52:01;;;;;;;;;;;;;;;7.41;100.00;96142.56;10608753;27;2116;-69
2023/12/26 20:57:12;;;;;;;;;;;;;;;7.44;100.00;96148.22;10605082;27;2307;-68
2023/12/26 21:02:19;;;;;;;;;;;;;;;7.38;100.00;96148.38;10606387;27;1858;-67
2023/12/26 21:07:23;;;;;;;;;;;;;;;7.29;100.00;96151.47;10597226;27;2563;-67
2023/12/26 21:12:26;;;;;;;;;;;;;;;7.40;100.00;96147.09;10620931;27;5163;-68
2023/12/26 21:17:32;;;;;;;;;;;;;;;7.41;100.00;96147.91;10610920;27;1897;-68
2023/12/26 21:22:38;;;;;;;;;;;;;;;7.44;100.00;96158.91;10596368;27;1922;-68
2023/12/26 21:27:42;;;;;;;;;;;;;;;7.44;100.00;96158.09;10582199;27;1892;-69
2023/12/26 21:32:59;;;;;;;;;;;;;;;7.52;100.00;96182.59;10597227;27;1987;-69
2023/12/26 21:38:09;;;;;;;;;;;;;;;7.48;100.00;96192.16;10586620;27;2106;-68
2023/12/26 21:43:18;;;;;;;;;;;;;;;7.42;100.00;96198.47;10591526;27;1965;-68
2023/12/26 21:48:26;;;;;;;;;;;;;;;7.43;100.00;96205.44;10599638;27;1992;-68
2023/12/26 21:53:31;;;;;;;;;;;;;;;7.43;100.00;96215.31;10598533;27;1936;-67
2023/12/26 21:58:44;;;;;;;;;;;;;;;7.44;100.00;96206.25;10588361;27;2056;-65
2023/12/26 22:09:17;;;;;;;;;;;;;;;7.49;100.00;96217.84;10597952;27;1999;-67
2023/12/26 22:14:26;;;;;;;;;;;;;;;7.39;100.00;96225.72;10596231;27;5198;-66
2023/12/26 22:19:30;;;;;;;;;;;;;;;7.36;100.00;96236.88;10590540;27;1857;-68
2023/12/26 22:24:34;;;;;;;;;;;;;;;7.31;100.00;96232.25;10601311;27;2049;-68
2023/12/26 22:29:37;;;;;;;;;;;;;;;7.35;100.00;96223.75;10579077;27;2131;-67
2023/12/26 22:34:50;;;;;;;;;;;;;;;7.28;100.00;96234.63;10601196;27;1861;-64
2023/12/26 22:39:57;;;;;;;;;;;;;;;7.31;100.00;96226.09;10590751;27;1912;-65
2023/12/26 22:45:01;;;;;;;;;;;;;;;7.23;100.00;96218.47;10599032;27;2370;-68
2023/12/26 22:50:30;;;;;;;;;;;;;;;7.19;100.00;96204.78;10598400;27;1901;-67
2023/12/26 22:55:36;;;;;;;;;;;;;;;7.18;100.00;96207.69;10584295;27;1969;-67
2023/12/26 23:00:43;;;;;;;;;;;;;;;7.27;100.00;96214.28;10564131;27;2119;-67
2023/12/26 23:05:58;;;;;;;;;;;;;;;7.23;100.00;96229.97;10595234;27;2110;-66
2023/12/26 23:11:02;;;;;;;;;;;;;;;7.27;100.00;96227.66;10615660;27;1986;-66
2023/12/26 23:16:11;;;;;;;;;;;;;;;7.32;100.00;96230.41;10578185;27;5126;-67
2023/12/26 23:21:14;;;;;;;;;;;;;;;7.33;100.00;96242.72;10578179;27;1886;-70
2023/12/26 23:26:17;;;;;;;;;;;;;;;7.41;100.00;96249.53;10598963;27;1901;-67
2023/12/26 23:31:35;;;;;;;;;;;;;;;7.44;100.00;96244.50;10588418;27;2058;-72
2023/12/26 23:36:38;;;;;;;;;;;;;;;7.44;100.00;96249.03;10599205;27;1878;-68
2023/12/26 23:41:49;;;;;;;;;;;;;;;7.40;100.00;96243.38;10605447;27;1900;-67
2023/12/26 23:46:59;;;;;;;;;;;;;;;7.42;100.00;96241.25;10586706;27;1962;-67
2023/12/26 23:52:02;;;;;;;;;;;;;;;7.40;100.00;96243.38;10605398;27;2134;-69
2023/12/26 23:57:06;;;;;;;;;;;;;;;7.41;100.00;96234.31;10605259;27;1851;-68
